Time;durP1;ratioP1;P1;durP2;ratioP2;P2;SDS_P1;SDS_P2;PMS_P1;PMS_P2;Temp;Humidity;BMP_temperature;BMP_pressure;BME280_temperature;BME280_humidity;BME280_pressure;Samples;Min_cycle;Max_cycle;Signal;HPM_P1;HPM_P2
2023/03/15 00:01:28;;;;;;;169.00;83.53;;;;;;;;;;5050116;28;20056;-79
2023/03/15 00:04:14;;;;;;;181.60;86.30;;;;;;;;;;5022534;28;20045;-79
2023/03/15 00:07:00;;;;;;;137.48;66.78;;;;;;;;;;5041546;28;20045;-80
2023/03/15 00:09:52;;;;;;;118.88;50.42;;;;;;;;;;5050842;28;20052;-80
2023/03/15 00:12:42;;;;;;;122.68;52.20;;;;;;;;;;5050884;28;20037;-79
2023/03/15 00:15:28;;;;;;;117.88;57.13;;;;;;;;;;5037523;28;20397;-80
2023/03/15 00:18:15;;;;;;;192.95;95.72;;;;;;;;;;5048826;28;20040;-79
2023/03/15 00:21:00;;;;;;;140.48;63.05;;;;;;;;;;5023299;28;20497;-80
2023/03/15 00:23:51;;;;;;;132.18;60.92;;;;;;;;;;5027924;28;20049;-80
2023/03/15 00:26:41;;;;;;;92.57;42.22;;;;;;;;;;5045119;28;20044;-79
2023/03/15 00:29:27;;;;;;;86.35;38.53;;;;;;;;;;5025423;28;20052;-79
2023/03/15 00:32:12;;;;;;;75.57;37.15;;;;;;;;;;5038212;28;20057;-79
2023/03/15 00:34:57;;;;;;;73.28;35.15;;;;;;;;;;5038441;28;20493;-80
2023/03/15 00:37:44;;;;;;;52.42;28.20;;;;;;;;;;5037574;28;20402;-80
2023/03/15 00:40:30;;;;;;;62.50;30.70;;;;;;;;;;5037125;28;20033;-79
2023/03/15 00:43:16;;;;;;;54.55;27.38;;;;;;;;;;5048432;28;20489;-80
2023/03/15 00:46:03;;;;;;;58.75;26.88;;;;;;;;;;5039496;28;20463;-79
2023/03/15 00:48:50;;;;;;;68.30;29.88;;;;;;;;;;5039712;28;20064;-79
2023/03/15 00:51:36;;;;;;;63.05;29.88;;;;;;;;;;5039698;28;20045;-80
2023/03/15 00:54:23;;;;;;;69.80;34.38;;;;;;;;;;5040301;28;20045;-80
2023/03/15 00:57:09;;;;;;;56.55;27.48;;;;;;;;;;5039265;28;20037;-80
2023/03/15 00:59:55;;;;;;;92.40;38.90;;;;;;;;;;5049731;28;20045;-79
2023/03/15 01:02:40;;;;;;;106.25;46.58;;;;;;;;;;5053193;28;20075;-79
2023/03/15 01:05:26;;;;;;;114.32;49.58;;;;;;;;;;5059226;28;20489;-79
2023/03/15 01:08:11;;;;;;;151.80;65.13;;;;;;;;;;5049975;28;20037;-80
2023/03/15 01:11:05;;;;;;;166.13;68.65;;;;;;;;;;5059012;28;20040;-79
2023/03/15 01:13:52;;;;;;;145.15;61.90;;;;;;;;;;5051020;28;20709;-79
2023/03/15 01:16:38;;;;;;;167.52;68.40;;;;;;;;;;5050955;28;20469;-79
2023/03/15 01:19:23;;;;;;;466.38;189.00;;;;;;;;;;5050057;28;20049;-79
2023/03/15 01:22:09;;;;;;;191.07;68.63;;;;;;;;;;5051103;28;20040;-80
2023/03/15 01:24:54;;;;;;;88.55;37.17;;;;;;;;;;5050855;28;20045;-80
2023/03/15 01:27:39;;;;;;;61.40;29.75;;;;;;;;;;5059129;28;20048;-80
2023/03/15 01:30:24;;;;;;;50.05;24.80;;;;;;;;;;5050851;28;20052;-80
2023/03/15 01:33:10;;;;;;;43.13;22.33;;;;;;;;;;5036602;28;20044;-81
2023/03/15 01:36:04;;;;;;;42.55;20.27;;;;;;;;;;5050574;28;20048;-81
2023/03/15 01:38:50;;;;;;;40.78;19.55;;;;;;;;;;5050415;28;20036;-80
2023/03/15 01:41:38;;;;;;;30.95;16.10;;;;;;;;;;5050338;28;20044;-81
2023/03/15 01:44:23;;;;;;;24.55;13.05;;;;;;;;;;5044054;28;20049;-80
2023/03/15 01:47:09;;;;;;;26.63;13.45;;;;;;;;;;5050399;28;20044;-80
2023/03/15 01:50:04;;;;;;;33.47;16.52;;;;;;;;;;5058759;28;20040;-80
2023/03/15 01:52:50;;;;;;;29.55;12.70;;;;;;;;;;5050343;28;20048;-81
2023/03/15 01:55:36;;;;;;;24.45;11.57;;;;;;;;;;5058204;28;20048;-81
2023/03/15 01:58:28;;;;;;;30.42;15.10;;;;;;;;;;5037409;28;20044;-80
2023/03/15 02:01:15;;;;;;;45.47;20.48;;;;;;;;;;5048769;28;20052;-80
2023/03/15 02:04:07;;;;;;;42.80;19.92;;;;;;;;;;5037097;28;20052;-81
2023/03/15 02:07:00;;;;;;;52.25;22.17;;;;;;;;;;5050160;28;20840;-80
2023/03/15 02:10:04;;;;;;;48.30;19.58;;;;;;;;;;5049882;28;20045;-81
2023/03/15 02:12:54;;;;;;;44.50;20.67;;;;;;;;;;5048748;28;20053;-80
2023/03/15 02:15:45;;;;;;;45.35;20.75;;;;;;;;;;5049135;28;20037;-80
2023/03/15 02:18:35;;;;;;;43.08;21.30;;;;;;;;;;5049622;28;20043;-80
2023/03/15 02:21:39;;;;;;;56.20;23.95;;;;;;;;;;5057857;28;20053;-81
2023/03/15 02:24:48;;;;;;;53.90;24.95;;;;;;;;;;5049306;28;20053;-80
2023/03/15 02:27:35;;;;;;;58.13;23.80;;;;;;;;;;5056278;28;20045;-80
2023/03/15 02:30:21;;;;;;;56.05;24.17;;;;;;;;;;5048422;28;20044;-80
2023/03/15 02:33:13;;;;;;;47.10;20.92;;;;;;;;;;5049265;28;20513;-80
2023/03/15 02:36:10;;;;;;;48.67;19.67;;;;;;;;;;5049570;28;20052;-81
2023/03/15 02:38:55;;;;;;;41.50;19.40;;;;;;;;;;5051007;28;20053;-80
2023/03/15 02:41:45;;;;;;;41.95;19.85;;;;;;;;;;5050703;28;20478;-81
2023/03/15 02:44:36;;;;;;;48.88;20.75;;;;;;;;;;5059395;28;20073;-80
2023/03/15 02:47:27;;;;;;;44.70;20.00;;;;;;;;;;5059979;28;20056;-80
2023/03/15 02:50:12;;;;;;;47.08;21.13;;;;;;;;;;5050694;28;20049;-80
2023/03/15 02:52:57;;;;;;;39.60;18.27;;;;;;;;;;5051284;28;20041;-80
2023/03/15 02:55:42;;;;;;;35.08;14.77;;;;;;;;;;5050239;28;20041;-80
2023/03/15 02:58:27;;;;;;;28.20;14.55;;;;;;;;;;5050503;28;20041;-80
2023/03/15 03:01:14;;;;;;;29.75;14.88;;;;;;;;;;5043475;28;20037;-80
2023/03/15 03:03:59;;;;;;;60.40;25.60;;;;;;;;;;5040891;28;20045;-80
2023/03/15 03:06:45;;;;;;;46.63;19.80;;;;;;;;;;5049523;28;20045;-80
2023/03/15 03:09:34;;;;;;;50.90;19.55;;;;;;;;;;5043247;28;20049;-80
2023/03/15 03:12:18;;;;;;;51.92;24.40;;;;;;;;;;5044744;28;20045;-80
2023/03/15 03:15:04;;;;;;;51.03;23.27;;;;;;;;;;5053435;28;20044;-80
2023/03/15 03:17:49;;;;;;;50.85;23.45;;;;;;;;;;5044447;28;20044;-80
2023/03/15 03:20:35;;;;;;;45.55;21.35;;;;;;;;;;5044177;28;20045;-80
2023/03/15 03:23:20;;;;;;;33.33;17.88;;;;;;;;;;5052896;28;20045;-80
2023/03/15 03:26:15;;;;;;;45.70;22.35;;;;;;;;;;5037944;28;20049;-80
2023/03/15 03:29:02;;;;;;;88.65;44.88;;;;;;;;;;5044376;28;20048;-80
2023/03/15 03:31:49;;;;;;;89.35;43.70;;;;;;;;;;5052488;28;20044;-81
2023/03/15 03:34:35;;;;;;;58.92;30.27;;;;;;;;;;5030049;28;20052;-81
2023/03/15 03:37:21;;;;;;;47.80;23.85;;;;;;;;;;5044237;28;20041;-82
2023/03/15 03:40:31;;;;;;;42.72;22.20;;;;;;;;;;5058339;28;20045;-80
2023/03/15 03:43:17;;;;;;;49.20;24.90;;;;;;;;;;5044478;28;20044;-80
2023/03/15 03:46:03;;;;;;;55.63;25.80;;;;;;;;;;5052103;28;20049;-81
2023/03/15 03:48:50;;;;;;;46.03;23.60;;;;;;;;;;5044266;28;20044;-81
2023/03/15 03:51:36;;;;;;;41.45;20.67;;;;;;;;;;5051959;28;20048;-81
2023/03/15 03:54:22;;;;;;;48.92;23.70;;;;;;;;;;5052251;28;20408;-81
2023/03/15 03:57:08;;;;;;;51.05;24.88;;;;;;;;;;5043568;28;20048;-81
2023/03/15 03:59:57;;;;;;;102.10;37.22;;;;;;;;;;5042776;28;20049;-80
2023/03/15 04:02:42;;;;;;;58.10;26.90;;;;;;;;;;5049752;28;20469;-80
2023/03/15 04:05:28;;;;;;;51.92;24.45;;;;;;;;;;5029752;28;20056;-79
2023/03/15 04:08:14;;;;;;;52.53;23.08;;;;;;;;;;5034132;28;20400;-80
2023/03/15 04:11:02;;;;;;;45.95;22.75;;;;;;;;;;5050729;28;20044;-80
2023/03/15 04:13:55;;;;;;;53.03;23.70;;;;;;;;;;5030725;28;20041;-80
2023/03/15 04:16:40;;;;;;;54.03;22.83;;;;;;;;;;5033724;28;20041;-80
2023/03/15 04:19:29;;;;;;;49.65;22.08;;;;;;;;;;5014975;28;20049;-81
2023/03/15 04:22:15;;;;;;;51.67;22.48;;;;;;;;;;5030004;28;20046;-80
2023/03/15 04:25:25;;;;;;;43.53;21.27;;;;;;;;;;5014088;28;20484;-81
2023/03/15 04:28:30;;;;;;;45.60;21.70;;;;;;;;;;5029113;28;20057;-81
2023/03/15 04:31:25;;;;;;;44.30;20.45;;;;;;;;;;5041115;28;20706;-80
2023/03/15 04:34:30;;;;;;;47.55;19.25;;;;;;;;;;5041506;28;20049;-80
2023/03/15 04:37:23;;;;;;;36.28;18.23;;;;;;;;;;5030320;28;20261;-80
2023/03/15 04:40:27;;;;;;;34.97;16.08;;;;;;;;;;5029155;28;20044;-80
2023/03/15 04:43:19;;;;;;;35.67;16.10;;;;;;;;;;5041754;28;20037;-81
2023/03/15 04:46:13;;;;;;;33.10;14.88;;;;;;;;;;5051907;28;20048;-81
2023/03/15 04:49:17;;;;;;;32.97;14.15;;;;;;;;;;5041270;28;20497;-80
2023/03/15 04:52:28;;;;;;;29.30;12.90;;;;;;;;;;5037107;28;20037;-80
2023/03/15 04:55:36;;;;;;;66.70;32.83;;;;;;;;;;5029983;28;20032;-80
2023/03/15 04:58:43;;;;;;;109.30;48.78;;;;;;;;;;5048039;28;20036;-80
2023/03/15 05:01:53;;;;;;;58.60;25.95;;;;;;;;;;5024436;28;20116;-80
2023/03/15 05:05:00;;;;;;;55.15;23.70;;;;;;;;;;5040687;28;20041;-80
2023/03/15 05:08:04;;;;;;;50.53;22.02;;;;;;;;;;5041545;28;20393;-80
2023/03/15 05:11:07;;;;;;;80.82;34.05;;;;;;;;;;5053807;28;20042;-80
2023/03/15 05:14:15;;;;;;;61.67;26.83;;;;;;;;;;5016596;28;20042;-80
2023/03/15 05:17:18;;;;;;;99.22;39.55;;;;;;;;;;5038916;28;20049;-80
2023/03/15 05:20:32;;;;;;;87.32;35.00;;;;;;;;;;5034468;28;20053;-80
2023/03/15 05:23:32;;;;;;;73.90;32.67;;;;;;;;;;5040649;28;20041;-80
2023/03/15 05:26:37;;;;;;;79.13;34.03;;;;;;;;;;5040934;28;20045;-80
2023/03/15 05:30:04;;;;;;;77.05;31.65;;;;;;;;;;5024937;28;20049;-80
2023/03/15 05:33:03;;;;;;;81.00;34.38;;;;;;;;;;5026416;28;20489;-80
2023/03/15 05:36:14;;;;;;;83.03;35.30;;;;;;;;;;5033974;28;20061;-80
2023/03/15 05:39:15;;;;;;;59.45;25.50;;;;;;;;;;5026199;28;20482;-80
2023/03/15 05:42:25;;;;;;;54.33;25.98;;;;;;;;;;5025091;28;20045;-80
2023/03/15 05:45:29;;;;;;;64.35;28.50;;;;;;;;;;5040902;28;21673;-80
2023/03/15 05:48:47;;;;;;;55.03;25.05;;;;;;;;;;5010638;28;20036;-80
2023/03/15 05:51:53;;;;;;;76.15;31.05;;;;;;;;;;5046779;28;20474;-79
2023/03/15 05:54:51;;;;;;;114.47;43.97;;;;;;;;;;5040573;28;20044;-80
2023/03/15 05:57:54;;;;;;;104.00;44.90;;;;;;;;;;5040744;28;21574;-79
2023/03/15 06:01:01;;;;;;;111.00;46.85;;;;;;;;;;5045921;28;20056;-80
2023/03/15 06:04:08;;;;;;;102.60;45.08;;;;;;;;;;5053866;28;20037;-79
2023/03/15 06:06:54;;;;;;;107.00;45.85;;;;;;;;;;5052518;28;20048;-80
2023/03/15 06:09:39;;;;;;;106.40;44.53;;;;;;;;;;5047120;28;20048;-82
2023/03/15 06:12:24;;;;;;;113.50;48.33;;;;;;;;;;5055093;28;20045;-80
2023/03/15 06:15:11;;;;;;;103.95;43.30;;;;;;;;;;5053247;28;20429;-78
2023/03/15 06:17:57;;;;;;;88.00;40.13;;;;;;;;;;5053899;28;20057;-78
2023/03/15 06:20:42;;;;;;;106.05;41.17;;;;;;;;;;5054516;28;20045;-77
2023/03/15 06:23:31;;;;;;;100.20;42.55;;;;;;;;;;5053201;28;20037;-77
2023/03/15 06:26:18;;;;;;;102.47;42.05;;;;;;;;;;5054796;28;20040;-79
2023/03/15 06:29:03;;;;;;;65.80;30.35;;;;;;;;;;5053222;28;20401;-78
2023/03/15 06:31:49;;;;;;;77.60;34.70;;;;;;;;;;5053761;28;20052;-77
2023/03/15 06:34:35;;;;;;;112.45;59.92;;;;;;;;;;5054101;28;20405;-77
2023/03/15 06:37:20;;;;;;;88.60;43.95;;;;;;;;;;5041189;28;20037;-77
2023/03/15 06:40:08;;;;;;;79.45;38.40;;;;;;;;;;5052206;28;20045;-78
2023/03/15 06:42:54;;;;;;;61.03;31.58;;;;;;;;;;5054948;28;20041;-80
2023/03/15 06:45:40;;;;;;;75.93;31.02;;;;;;;;;;5056613;28;20045;-78
2023/03/15 06:48:26;;;;;;;103.75;45.67;;;;;;;;;;5055969;28;20045;-79
2023/03/15 06:51:12;;;;;;;80.32;38.40;;;;;;;;;;5054575;28;20049;-79
2023/03/15 06:53:57;;;;;;;60.78;30.95;;;;;;;;;;5056574;28;20041;-80
2023/03/15 06:56:42;;;;;;;57.10;27.33;;;;;;;;;;5057699;28;20401;-77
2023/03/15 06:59:28;;;;;;;50.47;24.77;;;;;;;;;;5053720;28;20048;-77
2023/03/15 07:02:16;;;;;;;39.45;20.77;;;;;;;;;;5042234;28;20049;-79
2023/03/15 07:05:01;;;;;;;59.88;23.25;;;;;;;;;;5033548;28;20057;-77
2023/03/15 07:07:46;;;;;;;56.90;29.92;;;;;;;;;;5024784;28;20490;-79
2023/03/15 07:10:31;;;;;;;58.03;22.65;;;;;;;;;;5032107;28;20057;-78
2023/03/15 07:13:17;;;;;;;44.22;24.20;;;;;;;;;;5030166;28;20045;-77
2023/03/15 07:16:03;;;;;;;57.60;28.30;;;;;;;;;;5030922;28;20042;-78
2023/03/15 07:18:49;;;;;;;56.28;29.02;;;;;;;;;;5030238;28;20037;-79
2023/03/15 07:21:34;;;;;;;51.97;28.15;;;;;;;;;;5015022;28;20046;-79
2023/03/15 07:24:20;;;;;;;56.58;25.42;;;;;;;;;;5030881;28;20054;-79
2023/03/15 07:27:05;;;;;;;44.58;23.33;;;;;;;;;;5032658;28;20065;-78
2023/03/15 07:29:51;;;;;;;55.72;28.00;;;;;;;;;;5035945;28;20057;-79
2023/03/15 07:32:37;;;;;;;49.35;24.98;;;;;;;;;;5030653;28;20041;-79
2023/03/15 07:35:22;;;;;;;47.63;23.27;;;;;;;;;;5031749;28;20054;-79
2023/03/15 07:38:08;;;;;;;73.07;27.98;;;;;;;;;;5031063;28;20042;-79
2023/03/15 07:40:54;;;;;;;70.38;26.02;;;;;;;;;;5037504;28;20477;-80
2023/03/15 07:43:39;;;;;;;74.70;32.92;;;;;;;;;;5033272;28;20053;-78
2023/03/15 07:46:30;;;;;;;62.08;32.53;;;;;;;;;;5023764;28;20045;-77
2023/03/15 07:49:16;;;;;;;56.80;24.42;;;;;;;;;;5033112;28;20394;-77
2023/03/15 07:52:02;;;;;;;44.42;24.17;;;;;;;;;;5032813;28;20045;-77
2023/03/15 07:54:47;;;;;;;52.72;23.88;;;;;;;;;;5031488;28;20037;-78
2023/03/15 07:57:33;;;;;;;42.55;23.27;;;;;;;;;;5032740;28;20041;-78
2023/03/15 08:00:21;;;;;;;56.25;24.30;;;;;;;;;;5032582;28;20033;-77
2023/03/15 08:03:07;;;;;;;29.63;16.60;;;;;;;;;;5040869;28;20063;-79
2023/03/15 08:05:52;;;;;;;24.65;11.55;;;;;;;;;;5041332;28;20041;-77
2023/03/15 08:08:37;;;;;;;27.83;12.45;;;;;;;;;;5041404;28;20045;-77
2023/03/15 08:11:23;;;;;;;24.00;13.32;;;;;;;;;;5042407;28;20045;-77
2023/03/15 08:14:07;;;;;;;36.90;18.25;;;;;;;;;;5040768;28;20045;-77
2023/03/15 08:16:53;;;;;;;27.05;14.68;;;;;;;;;;5039998;28;20049;-77
2023/03/15 08:19:39;;;;;;;30.92;15.35;;;;;;;;;;5031284;28;20344;-77
2023/03/15 08:22:24;;;;;;;30.30;16.05;;;;;;;;;;5039779;28;20053;-76
2023/03/15 08:25:12;;;;;;;33.75;18.58;;;;;;;;;;5038452;28;20040;-77
2023/03/15 08:27:57;;;;;;;38.03;19.17;;;;;;;;;;5039729;28;20041;-77
2023/03/15 08:30:43;;;;;;;45.38;22.67;;;;;;;;;;5042032;28;20469;-77
2023/03/15 08:33:31;;;;;;;41.33;19.50;;;;;;;;;;5039691;28;20057;-77
2023/03/15 08:36:16;;;;;;;35.10;18.80;;;;;;;;;;5039285;28;20042;-78
2023/03/15 08:39:04;;;;;;;41.42;19.80;;;;;;;;;;5040003;28;20393;-78
2023/03/15 08:41:50;;;;;;;46.42;21.70;;;;;;;;;;5037451;28;20041;-77
2023/03/15 08:44:35;;;;;;;34.17;17.77;;;;;;;;;;5039257;28;20054;-77
2023/03/15 08:47:20;;;;;;;27.75;13.38;;;;;;;;;;5039657;28;20045;-77
2023/03/15 08:50:15;;;;;;;36.15;18.73;;;;;;;;;;5039341;28;20049;-78
2023/03/15 08:53:00;;;;;;;27.13;16.42;;;;;;;;;;5041853;28;20490;-77
2023/03/15 08:55:47;;;;;;;37.13;20.98;;;;;;;;;;5030906;28;20041;-78
2023/03/15 08:58:33;;;;;;;43.25;23.58;;;;;;;;;;5038995;28;20041;-77
2023/03/15 09:01:20;;;;;;;37.28;19.27;;;;;;;;;;5038466;28;20042;-78
2023/03/15 09:04:06;;;;;;;27.38;15.75;;;;;;;;;;5038702;28;20041;-78
2023/03/15 09:06:52;;;;;;;34.25;18.60;;;;;;;;;;5038359;28;20397;-77
2023/03/15 09:09:46;;;;;;;40.88;21.33;;;;;;;;;;5037491;28;20049;-79
2023/03/15 09:12:37;;;;;;;30.40;16.58;;;;;;;;;;5041298;28;20057;-78
2023/03/15 09:15:27;;;;;;;31.55;17.83;;;;;;;;;;5030792;28;20461;-77
2023/03/15 09:18:14;;;;;;;17.98;10.13;;;;;;;;;;5037759;28;20045;-79
2023/03/15 09:21:00;;;;;;;26.33;15.27;;;;;;;;;;5040268;28;20042;-78
2023/03/15 09:23:46;;;;;;;23.60;14.50;;;;;;;;;;5029746;28;20038;-77
2023/03/15 09:26:31;;;;;;;25.38;15.75;;;;;;;;;;5038136;28;20041;-77
2023/03/15 09:29:17;;;;;;;29.92;15.65;;;;;;;;;;5038484;28;20034;-78
2023/03/15 09:32:08;;;;;;;26.15;15.88;;;;;;;;;;5038447;28;20493;-78
2023/03/15 09:34:55;;;;;;;9.73;6.55;;;;;;;;;;5038675;28;20453;-78
2023/03/15 09:37:46;;;;;;;15.90;7.65;;;;;;;;;;5040749;28;20489;-76
2023/03/15 09:40:45;;;;;;;23.42;9.90;;;;;;;;;;5029385;28;20037;-77
2023/03/15 09:43:50;;;;;;;17.00;10.88;;;;;;;;;;5040630;28;20052;-77
2023/03/15 09:46:51;;;;;;;29.30;15.45;;;;;;;;;;5040289;28;20048;-76
2023/03/15 09:49:44;;;;;;;19.73;9.25;;;;;;;;;;5040467;28;20044;-79
2023/03/15 09:52:50;;;;;;;19.88;11.45;;;;;;;;;;5039666;28;20041;-77
2023/03/15 09:55:41;;;;;;;9.15;6.55;;;;;;;;;;5040389;28;20397;-76
2023/03/15 09:58:34;;;;;;;9.15;6.10;;;;;;;;;;5031464;28;20045;-77
2023/03/15 10:01:38;;;;;;;17.02;11.07;;;;;;;;;;5039311;28;20036;-78
2023/03/15 10:04:33;;;;;;;12.30;9.50;;;;;;;;;;5048108;28;20041;-78
2023/03/15 10:07:19;;;;;;;6.03;3.97;;;;;;;;;;5046787;28;20045;-77
2023/03/15 10:10:16;;;;;;;17.67;11.55;;;;;;;;;;5047105;28;20053;-78
2023/03/15 10:13:27;;;;;;;11.50;8.13;;;;;;;;;;5046401;28;20037;-77
2023/03/15 10:16:38;;;;;;;13.70;9.45;;;;;;;;;;5049454;28;20481;-78
2023/03/15 10:19:50;;;;;;;12.18;8.07;;;;;;;;;;5048374;28;20066;-79
2023/03/15 10:22:55;;;;;;;18.50;12.23;;;;;;;;;;5048152;28;20037;-79
2023/03/15 10:25:47;;;;;;;18.92;11.52;;;;;;;;;;5050154;28;20045;-79
2023/03/15 10:28:39;;;;;;;17.17;11.38;;;;;;;;;;5049587;28;20485;-79
2023/03/15 10:31:29;;;;;;;16.30;11.77;;;;;;;;;;5049815;28;20045;-78
2023/03/15 10:34:15;;;;;;;14.27;8.75;;;;;;;;;;5049609;28;20049;-78
2023/03/15 10:37:05;;;;;;;15.07;9.07;;;;;;;;;;5050212;28;20049;-79
2023/03/15 10:39:57;;;;;;;14.52;9.43;;;;;;;;;;5050065;28;20469;-78
2023/03/15 10:42:45;;;;;;;15.18;9.57;;;;;;;;;;5054338;28;20037;-78
2023/03/15 10:45:37;;;;;;;17.95;11.18;;;;;;;;;;5047552;28;20049;-78
2023/03/15 10:48:22;;;;;;;26.95;16.80;;;;;;;;;;5049535;28;20381;-79
2023/03/15 10:51:17;;;;;;;29.70;17.42;;;;;;;;;;5049915;28;20045;-80
2023/03/15 10:54:18;;;;;;;31.70;20.15;;;;;;;;;;5049777;28;20041;-80
2023/03/15 10:57:17;;;;;;;19.73;11.95;;;;;;;;;;5049562;28;20041;-80
2023/03/15 11:00:31;;;;;;;22.42;14.15;;;;;;;;;;5049547;28;20045;-78
2023/03/15 11:03:22;;;;;;;26.55;16.20;;;;;;;;;;5047121;28;20045;-79
2023/03/15 11:06:26;;;;;;;17.55;13.05;;;;;;;;;;5050003;28;20396;-78
2023/03/15 11:09:22;;;;;;;21.27;14.48;;;;;;;;;;5049803;28;20041;-77
2023/03/15 11:12:29;;;;;;;17.73;8.85;;;;;;;;;;5050365;28;20041;-78
2023/03/15 11:15:18;;;;;;;13.05;9.07;;;;;;;;;;5051748;28;20416;-79
2023/03/15 11:18:03;;;;;;;18.58;13.10;;;;;;;;;;5051121;28;20675;-79
2023/03/15 11:20:56;;;;;;;19.85;11.95;;;;;;;;;;5059357;28;20041;-81
2023/03/15 11:23:49;;;;;;;16.95;12.18;;;;;;;;;;5054388;28;20053;-85
2023/03/15 11:26:38;;;;;;;18.63;11.60;;;;;;;;;;5047400;28;20421;-85
2023/03/15 11:29:25;;;;;;;13.32;8.18;;;;;;;;;;5047676;28;20265;-82
2023/03/15 11:32:25;;;;;;;18.83;11.45;;;;;;;;;;5059959;28;20405;-80
2023/03/15 11:35:16;;;;;;;14.18;9.63;;;;;;;;;;5053041;28;20029;-83
2023/03/15 11:38:12;;;;;;;15.00;10.13;;;;;;;;;;5052759;28;20053;-82
2023/03/15 11:41:41;;;;;;;7.90;6.38;;;;;;;;;;5057623;28;20044;-81
2023/03/15 11:44:40;;;;;;;7.93;6.15;;;;;;;;;;5052187;28;20053;-81
2023/03/15 11:47:40;;;;;;;11.68;7.97;;;;;;;;;;5043392;28;20709;-82
2023/03/15 11:50:32;;;;;;;5.57;3.97;;;;;;;;;;5053446;28;20418;-80
2023/03/15 11:53:19;;;;;;;9.55;6.10;;;;;;;;;;5052446;28;20041;-81
2023/03/15 11:56:25;;;;;;;6.75;4.80;;;;;;;;;;5050665;28;20048;-81
2023/03/15 11:59:20;;;;;;;7.82;5.18;;;;;;;;;;5052036;28;20049;-80
2023/03/15 12:02:09;;;;;;;9.45;5.78;;;;;;;;;;5051384;28;20045;-81
2023/03/15 12:04:56;;;;;;;9.23;6.00;;;;;;;;;;5048676;28;20050;-80
2023/03/15 12:07:58;;;;;;;10.27;6.25;;;;;;;;;;5048627;28;20398;-82
2023/03/15 12:10:48;;;;;;;6.28;4.57;;;;;;;;;;5048253;28;20053;-82
2023/03/15 12:13:52;;;;;;;11.38;6.75;;;;;;;;;;5053649;28;20478;-82
2023/03/15 12:16:41;;;;;;;4.43;3.50;;;;;;;;;;5048031;28;20033;-82
2023/03/15 12:19:27;;;;;;;7.00;4.10;;;;;;;;;;5054507;28;20041;-83
2023/03/15 12:22:16;;;;;;;10.32;6.85;;;;;;;;;;5040142;28;20053;-82
2023/03/15 12:25:12;;;;;;;18.58;10.20;;;;;;;;;;5040536;28;20041;-82
2023/03/15 12:27:58;;;;;;;13.50;7.50;;;;;;;;;;5054283;28;20394;-81
2023/03/15 12:30:50;;;;;;;11.63;6.13;;;;;;;;;;5054378;28;20045;-81
2023/03/15 12:33:52;;;;;;;6.10;4.03;;;;;;;;;;5054261;28;20402;-83
2023/03/15 12:36:44;;;;;;;5.07;3.42;;;;;;;;;;5047978;28;20048;-82
2023/03/15 12:39:36;;;;;;;16.05;6.10;;;;;;;;;;5040523;28;20405;-81
2023/03/15 12:42:29;;;;;;;31.67;10.63;;;;;;;;;;5053243;28;20038;-80
2023/03/15 12:45:16;;;;;;;54.03;13.70;;;;;;;;;;5053361;28;20053;-82
2023/03/15 12:48:05;;;;;;;8.77;4.13;;;;;;;;;;5039877;28;20037;-82
2023/03/15 12:50:53;;;;;;;6.22;3.17;;;;;;;;;;5039135;28;20505;-83
2023/03/15 12:53:43;;;;;;;10.02;5.60;;;;;;;;;;5054284;28;20042;-80
2023/03/15 12:56:49;;;;;;;12.00;7.28;;;;;;;;;;5040873;28;20056;-81
2023/03/15 12:59:47;;;;;;;12.23;5.28;;;;;;;;;;5041321;28;20033;-82
2023/03/15 13:02:36;;;;;;;2.47;1.88;;;;;;;;;;5046796;28;20044;-80
2023/03/15 13:05:26;;;;;;;4.38;2.65;;;;;;;;;;5049394;28;20049;-83
2023/03/15 13:08:27;;;;;;;2.80;2.50;;;;;;;;;;5055777;28;20060;-80
2023/03/15 13:11:38;;;;;;;4.82;3.28;;;;;;;;;;5050987;28;20052;-82
2023/03/15 13:14:42;;;;;;;5.30;3.60;;;;;;;;;;5049459;28;20048;-80
2023/03/15 13:17:45;;;;;;;6.55;3.47;;;;;;;;;;5055988;28;20045;-81
2023/03/15 13:20:40;;;;;;;7.00;3.63;;;;;;;;;;5041053;28;20041;-81
2023/03/15 13:23:31;;;;;;;3.08;2.17;;;;;;;;;;5055655;28;20369;-81
2023/03/15 13:26:16;;;;;;;3.28;2.20;;;;;;;;;;5050533;28;20037;-80
2023/03/15 13:29:18;;;;;;;4.18;3.20;;;;;;;;;;5050686;28;20037;-81
2023/03/15 13:32:22;;;;;;;3.25;2.72;;;;;;;;;;5049173;28;20425;-81
2023/03/15 13:35:12;;;;;;;12.38;6.78;;;;;;;;;;5055735;28;20040;-80
2023/03/15 13:38:36;;;;;;;5.55;3.42;;;;;;;;;;5050451;28;20390;-80
2023/03/15 13:41:29;;;;;;;4.35;2.85;;;;;;;;;;5049185;28;20040;-80
2023/03/15 13:44:18;;;;;;;4.35;2.58;;;;;;;;;;5042090;28;20045;-80
2023/03/15 13:47:04;;;;;;;2.47;2.13;;;;;;;;;;5055726;28;20490;-80
2023/03/15 13:49:51;;;;;;;5.50;3.25;;;;;;;;;;5050643;28;20401;-80
2023/03/15 13:52:40;;;;;;;5.25;3.20;;;;;;;;;;5041162;28;20048;-80
2023/03/15 13:55:34;;;;;;;4.53;2.92;;;;;;;;;;5055047;28;20052;-80
2023/03/15 13:58:22;;;;;;;4.60;3.15;;;;;;;;;;5050291;28;20045;-80
2023/03/15 14:01:11;;;;;;;4.28;2.80;;;;;;;;;;5048777;28;20081;-79
2023/03/15 14:04:06;;;;;;;4.85;2.80;;;;;;;;;;5050132;28;20045;-78
2023/03/15 14:07:24;;;;;;;8.20;3.15;;;;;;;;;;5050469;28;20048;-81
2023/03/15 14:10:26;;;;;;;5.10;3.08;;;;;;;;;;5040625;28;20045;-80
2023/03/15 14:13:27;;;;;;;6.53;3.08;;;;;;;;;;5047946;28;20053;-80
2023/03/15 14:16:28;;;;;;;4.95;2.95;;;;;;;;;;5049965;28;20478;-81
2023/03/15 14:19:26;;;;;;;7.47;4.13;;;;;;;;;;5054094;28;20075;-79
2023/03/15 14:22:17;;;;;;;5.22;3.35;;;;;;;;;;5049858;28;20029;-80
2023/03/15 14:25:02;;;;;;;3.67;2.35;;;;;;;;;;5055097;28;20041;-81
2023/03/15 14:27:48;;;;;;;2.55;1.95;;;;;;;;;;5049986;28;20049;-80
2023/03/15 14:30:36;;;;;;;8.25;4.22;;;;;;;;;;5041380;28;20052;-80
2023/03/15 14:33:30;;;;;;;6.05;4.57;;;;;;;;;;5041172;28;20049;-81
2023/03/15 14:36:31;;;;;;;4.63;3.33;;;;;;;;;;5048080;28;20041;-78
2023/03/15 14:39:28;;;;;;;7.20;3.95;;;;;;;;;;5049652;28;20044;-78
2023/03/15 14:42:14;;;;;;;7.95;5.10;;;;;;;;;;5049487;28;20045;-79
2023/03/15 14:45:00;;;;;;;6.13;4.28;;;;;;;;;;5049943;28;20045;-79
2023/03/15 14:47:48;;;;;;;7.57;3.72;;;;;;;;;;5053108;28;20049;-79
2023/03/15 14:50:40;;;;;;;15.27;10.48;;;;;;;;;;5059250;28;20061;-78
2023/03/15 14:53:34;;;;;;;11.75;6.47;;;;;;;;;;5052877;28;20053;-79
2023/03/15 14:56:19;;;;;;;8.55;4.65;;;;;;;;;;5053063;28;20045;-79
2023/03/15 14:59:11;;;;;;;6.63;3.40;;;;;;;;;;5053701;28;20045;-78
2023/03/15 15:01:58;;;;;;;6.25;3.63;;;;;;;;;;5052771;28;20053;-78
2023/03/15 15:04:46;;;;;;;3.85;2.95;;;;;;;;;;5045884;28;20049;-79
2023/03/15 15:07:31;;;;;;;10.00;5.88;;;;;;;;;;5056239;28;20041;-78
2023/03/15 15:10:17;;;;;;;8.55;4.35;;;;;;;;;;5056344;28;20045;-79
2023/03/15 15:13:02;;;;;;;16.38;9.75;;;;;;;;;;5056813;28;20421;-79
2023/03/15 15:15:47;;;;;;;16.50;9.32;;;;;;;;;;5056581;28;20053;-79
2023/03/15 15:18:35;;;;;;;14.98;7.93;;;;;;;;;;5055858;28;20040;-79
2023/03/15 15:21:29;;;;;;;7.45;4.57;;;;;;;;;;5062232;28;20048;-79
2023/03/15 15:24:18;;;;;;;10.43;5.28;;;;;;;;;;5056753;28;20052;-78
2023/03/15 15:27:03;;;;;;;7.75;4.15;;;;;;;;;;5050554;28;20049;-79
2023/03/15 15:29:49;;;;;;;6.55;4.18;;;;;;;;;;5060951;28;20040;-78
2023/03/15 15:32:34;;;;;;;5.15;3.28;;;;;;;;;;5059252;28;20405;-78
2023/03/15 15:35:19;;;;;;;9.13;5.32;;;;;;;;;;5074765;28;20049;-78
2023/03/15 15:38:11;;;;;;;6.30;4.43;;;;;;;;;;5076571;28;20048;-79
2023/03/15 15:40:56;;;;;;;5.35;3.78;;;;;;;;;;5082032;28;20044;-78
2023/03/15 15:43:42;;;;;;;6.22;4.05;;;;;;;;;;5075947;28;20477;-79
2023/03/15 15:46:27;;;;;;;4.53;2.83;;;;;;;;;;5068067;28;20044;-79
2023/03/15 15:49:13;;;;;;;13.20;7.93;;;;;;;;;;5075584;28;20040;-79
2023/03/15 15:51:59;;;;;;;12.98;7.60;;;;;;;;;;5076290;28;20052;-79
2023/03/15 15:54:45;;;;;;;9.70;6.13;;;;;;;;;;5060954;28;20045;-79
2023/03/15 15:57:30;;;;;;;10.20;5.68;;;;;;;;;;5067200;28;20041;-79
2023/03/15 16:00:22;;;;;;;9.65;5.55;;;;;;;;;;5075745;28;20112;-77
2023/03/15 16:03:15;;;;;;;6.88;4.30;;;;;;;;;;5075914;28;20052;-78
2023/03/15 16:05:59;;;;;;;13.13;7.03;;;;;;;;;;5067137;28;20040;-78
2023/03/15 16:08:47;;;;;;;12.80;7.28;;;;;;;;;;5075982;28;20036;-78
2023/03/15 16:11:33;;;;;;;10.20;5.95;;;;;;;;;;5075054;28;20040;-78
2023/03/15 16:14:18;;;;;;;6.43;4.50;;;;;;;;;;5075743;28;20397;-80
2023/03/15 16:17:30;;;;;;;8.95;5.00;;;;;;;;;;5068757;28;20045;-79
2023/03/15 16:20:17;;;;;;;17.83;8.43;;;;;;;;;;5082253;28;20044;-78
2023/03/15 16:23:02;;;;;;;14.77;8.68;;;;;;;;;;5060092;28;20049;-78
2023/03/15 16:25:52;;;;;;;17.95;11.60;;;;;;;;;;5059750;28;20040;-78
2023/03/15 16:28:37;;;;;;;7.22;5.30;;;;;;;;;;5075194;28;20052;-78
2023/03/15 16:31:23;;;;;;;17.52;9.93;;;;;;;;;;5074734;28;20036;-80
2023/03/15 16:34:12;;;;;;;20.15;11.65;;;;;;;;;;5075350;28;20389;-78
2023/03/15 16:36:58;;;;;;;23.08;11.80;;;;;;;;;;5074359;28;20472;-78
2023/03/15 16:39:47;;;;;;;29.77;15.77;;;;;;;;;;5054928;28;20048;-79
2023/03/15 16:42:32;;;;;;;31.50;14.18;;;;;;;;;;5063597;28;20473;-79
2023/03/15 16:45:18;;;;;;;25.17;10.68;;;;;;;;;;5066394;28;20052;-78